Time,TemperatureF,DewpointF,PressureIn,WindDirection,WindDirectionDegrees,WindSpeedMPH,WindSpeedGustMPH,Humidity,HourlyPrecipIn,Conditions,Clouds,dailyrainin,SoftwareType,DateUTC
2013-03-08 00:00:00,20.0,15.0,-100.00,North,-999,-999.0,-999.0,80,-99.99,,,-99.99,,2013-03-08 07:00:00,
2013-03-08 00:52:00,20.0,15.0,-100.00,North,-999,-999.0,-999.0,80,-99.99,,,-99.99,,2013-03-08 07:52:00,
2013-03-08 01:00:00,22.0,17.0,-100.00,North,-999,-999.0,-999.0,78,-99.99,,,-99.99,,2013-03-08 08:00:00,
2013-03-08 01:52:00,22.0,17.0,-100.00,North,-999,-999.0,-999.0,78,-99.99,,,-99.99,,2013-03-08 08:52:00,
2013-03-08 02:00:00,25.0,16.0,-100.00,North,-999,-999.0,-999.0,69,-99.99,,,-99.99,,2013-03-08 09:00:00,
2013-03-08 03:00:00,26.0,18.0,-100.00,North,-999,-999.0,-999.0,71,-99.99,,,-99.99,,2013-03-08 10:00:00,
2013-03-08 04:00:00,27.0,21.0,-100.00,North,-999,-999.0,-999.0,77,-99.99,,,-99.99,,2013-03-08 11:00:00,
2013-03-08 04:52:00,27.0,21.0,-100.00,North,-999,-999.0,-999.0,77,-99.99,,,-99.99,,2013-03-08 11:52:00,
2013-03-08 05:00:00,27.0,21.0,-100.00,North,-999,-999.0,-999.0,79,-99.99,,,-99.99,,2013-03-08 12:00:00,
2013-03-08 05:52:00,27.0,21.0,-100.00,North,-999,-999.0,-999.0,79,-99.99,,,-99.99,,2013-03-08 12:52:00,
2013-03-08 06:00:00,24.0,18.0,-100.00,North,-999,-999.0,-999.0,77,-99.99,,,-99.99,,2013-03-08 13:00:00,
2013-03-08 06:52:00,24.0,18.0,-100.00,North,-999,-999.0,-999.0,77,-99.99,,,-99.99,,2013-03-08 13:52:00,
2013-03-08 07:00:00,24.0,18.0,-100.00,North,-999,-999.0,-999.0,78,-99.99,,,0.00,,2013-03-08 14:00:00,
2013-03-08 07:52:00,24.0,18.0,-100.00,North,-999,-999.0,-999.0,78,-99.99,,,0.00,,2013-03-08 14:52:00,
2013-03-08 08:00:00,27.0,21.0,-100.00,North,-999,-999.0,-999.0,76,-99.99,,,-99.99,,2013-03-08 15:00:00,
2013-03-08 09:00:00,31.0,22.0,-100.00,North,-999,-999.0,-999.0,67,-99.99,,,-99.99,,2013-03-08 16:00:00,
2013-03-08 09:52:00,31.0,22.0,-100.00,North,-999,-999.0,-999.0,67,-99.99,,,-99.99,,2013-03-08 16:52:00,
2013-03-08 10:00:00,35.0,23.0,-100.00,North,-999,-999.0,-999.0,61,-99.99,,,-99.99,,2013-03-08 17:00:00,
2013-03-08 10:52:00,35.0,23.0,-100.00,North,-999,-999.0,-999.0,61,-99.99,,,-99.99,,2013-03-08 17:52:00,
2013-03-08 11:00:00,37.0,21.0,-100.00,North,-999,-999.0,-999.0,53,-99.99,,,-99.99,,2013-03-08 18:00:00,
2013-03-08 12:00:00,36.0,21.0,-100.00,North,-999,-999.0,-999.0,54,-99.99,,,-99.99,,2013-03-08 19:00:00,
2013-03-08 12:52:00,36.0,21.0,-100.00,North,-999,-999.0,-999.0,54,-99.99,,,-99.99,,2013-03-08 19:52:00,
2013-03-08 13:00:00,37.0,21.0,-100.00,North,-999,-999.0,-999.0,53,-99.99,,,0.00,,2013-03-08 20:00:00,
2013-03-08 13:53:00,37.0,21.0,-100.00,North,-999,-999.0,-999.0,53,-99.99,,,0.00,,2013-03-08 20:53:00,
2013-03-08 14:00:00,36.0,21.0,-100.00,North,-999,-999.0,-999.0,53,-99.99,,,-99.99,,2013-03-08 21:00:00,
2013-03-08 14:52:00,36.0,21.0,-100.00,North,-999,-999.0,-999.0,53,-99.99,,,-99.99,,2013-03-08 21:52:00,
2013-03-08 15:00:00,35.0,21.0,-100.00,North,-999,-999.0,-999.0,56,-99.99,,,-99.99,,2013-03-08 22:00:00,
2013-03-08 15:52:00,35.0,21.0,-100.00,North,-999,-999.0,-999.0,56,-99.99,,,-99.99,,2013-03-08 22:52:00,
2013-03-08 16:00:00,34.0,22.0,-100.00,North,-999,-999.0,-999.0,60,-99.99,,,0.00,,2013-03-08 23:00:00,
2013-03-08 16:53:00,34.0,22.0,-100.00,North,-999,-999.0,-999.0,60,-99.99,,,0.00,,2013-03-08 23:53:00,
2013-03-08 17:00:00,31.0,21.0,-100.00,North,-999,-999.0,-999.0,65,-99.99,,,-99.99,,2013-03-09 00:00:00,
2013-03-08 17:52:00,31.0,21.0,-100.00,North,-999,-999.0,-999.0,65,-99.99,,,-99.99,,2013-03-09 00:52:00,
2013-03-08 20:00:00,23.0,20.0,-100.00,North,-999,-999.0,-999.0,85,-99.99,,,-99.99,,2013-03-09 03:00:00,
2013-03-08 20:52:00,23.0,20.0,-100.00,North,-999,-999.0,-999.0,85,-99.99,,,-99.99,,2013-03-09 03:52:00,
2013-03-08 21:00:00,23.0,20.0,-100.00,North,-999,-999.0,-999.0,88,-99.99,,,-99.99,,2013-03-09 04:00:00,
2013-03-08 21:52:00,23.0,20.0,-100.00,North,-999,-999.0,-999.0,88,-99.99,,,-99.99,,2013-03-09 04:52:00,
2013-03-08 22:00:00,25.0,23.0,-100.00,North,-999,-999.0,-999.0,90,-99.99,,,0.00,,2013-03-09 05:00:00,
2013-03-08 22:53:00,25.0,23.0,-100.00,North,-999,-999.0,-999.0,90,-99.99,,,0.00,,2013-03-09 05:53:00,
2013-03-08 23:00:00,25.0,22.0,-100.00,North,-999,-999.0,-999.0,87,-99.99,,,-99.99,,2013-03-09 06:00:00,